createdAt,value
2023-08-17T00:01:37.832Z,99.90
2023-08-17T00:04:04.793Z,99.90
2023-08-17T00:06:31.566Z,99.90
2023-08-17T00:08:58.337Z,99.90
2023-08-17T00:11:25.107Z,99.90
2023-08-17T00:13:52.178Z,99.90
2023-08-17T00:16:19.321Z,99.90
2023-08-17T00:18:46.084Z,99.90
2023-08-17T00:21:12.791Z,99.90
2023-08-17T00:23:39.506Z,99.90
2023-08-17T00:26:06.349Z,99.90
2023-08-17T00:28:33.378Z,99.90
2023-08-17T00:31:01.564Z,99.90
2023-08-17T00:33:28.596Z,99.90
2023-08-17T00:35:55.407Z,99.90
2023-08-17T00:38:22.193Z,99.90
2023-08-17T00:40:49.137Z,99.90
2023-08-17T00:43:15.906Z,99.90
2023-08-17T00:45:45.015Z,99.90
2023-08-17T00:48:12.606Z,99.90
2023-08-17T00:50:40.833Z,99.90
2023-08-17T00:53:08.863Z,99.90
2023-08-17T00:55:35.641Z,99.90
2023-08-17T00:58:02.879Z,99.90
2023-08-17T01:00:29.694Z,99.90
2023-08-17T01:02:57.182Z,99.90
2023-08-17T01:05:25.243Z,99.90
2023-08-17T01:07:52.041Z,99.90
2023-08-17T01:10:19.491Z,99.90
2023-08-17T01:12:59.863Z,99.90
2023-08-17T01:15:36.519Z,99.90
2023-08-17T01:18:23.375Z,99.90
2023-08-17T01:20:51.163Z,99.90
2023-08-17T01:23:18.037Z,99.90
2023-08-17T01:25:44.814Z,99.90
2023-08-17T01:28:11.703Z,99.90
2023-08-17T01:30:50.701Z,99.90
2023-08-17T01:33:26.867Z,99.90
2023-08-17T01:36:24.104Z,99.90
2023-08-17T01:38:53.421Z,99.90
2023-08-17T01:41:23.522Z,99.90
2023-08-17T01:43:52.173Z,99.90
2023-08-17T01:46:19.566Z,99.90
2023-08-17T01:48:47.112Z,99.90
2023-08-17T01:51:20.035Z,99.90
2023-08-17T01:53:47.261Z,99.90
2023-08-17T01:56:14.305Z,99.90
2023-08-17T01:58:41.305Z,99.90
2023-08-17T02:01:08.334Z,99.90
2023-08-17T02:03:35.277Z,99.90
2023-08-17T02:06:02.176Z,99.90
2023-08-17T02:08:29.059Z,99.90
2023-08-17T02:10:55.777Z,99.90
2023-08-17T02:13:22.705Z,99.90
2023-08-17T02:15:49.910Z,99.90
2023-08-17T02:18:16.826Z,99.90
2023-08-17T02:20:43.698Z,99.90
2023-08-17T02:23:10.534Z,99.90
2023-08-17T02:25:41.162Z,99.90
2023-08-17T02:28:08.687Z,99.90
2023-08-17T02:30:35.563Z,99.90
2023-08-17T02:33:02.448Z,99.90
2023-08-17T02:35:29.273Z,99.90
2023-08-17T02:37:56.049Z,99.90
2023-08-17T02:40:23.054Z,99.90
2023-08-17T02:42:49.879Z,99.90
2023-08-17T02:45:16.672Z,99.90
2023-08-17T02:47:43.437Z,99.90
2023-08-17T02:50:10.821Z,99.90
2023-08-17T02:52:37.595Z,99.90
2023-08-17T02:55:04.737Z,99.90
2023-08-17T02:57:31.523Z,99.90
2023-08-17T02:59:58.280Z,99.90
2023-08-17T03:02:24.974Z,99.90
2023-08-17T03:04:51.927Z,99.90
2023-08-17T03:07:18.787Z,99.90
2023-08-17T03:09:45.472Z,99.90
2023-08-17T03:12:12.225Z,99.90
2023-08-17T03:14:39.074Z,99.90
2023-08-17T03:17:05.862Z,99.90
2023-08-17T03:19:32.570Z,99.90
2023-08-17T03:21:59.321Z,99.90
2023-08-17T03:24:26.139Z,99.90
2023-08-17T03:26:53.206Z,99.90
2023-08-17T03:29:19.991Z,99.90
2023-08-17T03:31:47.247Z,99.90
2023-08-17T03:34:14.262Z,99.90
2023-08-17T03:36:41.009Z,99.90
2023-08-17T03:39:07.872Z,99.90
2023-08-17T03:41:35.002Z,99.90
2023-08-17T03:44:01.763Z,99.90
2023-08-17T03:46:28.547Z,99.90
2023-08-17T03:48:55.384Z,99.90
2023-08-17T03:51:22.110Z,99.90
2023-08-17T03:53:48.985Z,99.90
2023-08-17T03:56:15.842Z,99.90
2023-08-17T03:58:43.586Z,99.90
2023-08-17T04:01:10.445Z,99.90
2023-08-17T04:03:37.233Z,99.90
2023-08-17T04:06:08.309Z,99.90
2023-08-17T04:08:35.108Z,99.90
2023-08-17T04:11:01.838Z,99.90
2023-08-17T04:13:28.719Z,99.90
2023-08-17T04:15:55.618Z,99.90
2023-08-17T04:18:22.653Z,99.90
2023-08-17T04:20:49.853Z,99.90
2023-08-17T04:23:16.945Z,99.90
2023-08-17T04:25:45.172Z,99.90
2023-08-17T04:28:12.968Z,99.90
2023-08-17T04:30:40.810Z,99.90
2023-08-17T04:33:09.101Z,99.90
2023-08-17T04:35:35.934Z,99.90
2023-08-17T04:38:02.922Z,99.90
2023-08-17T04:40:30.086Z,99.90
2023-08-17T04:42:56.887Z,99.90
2023-08-17T04:45:24.244Z,99.90
2023-08-17T04:47:51.050Z,99.90
2023-08-17T04:50:17.860Z,99.90
2023-08-17T04:52:45.565Z,99.90
2023-08-17T04:55:14.421Z,99.90
2023-08-17T04:57:41.655Z,99.90
2023-08-17T05:00:10.671Z,99.90
2023-08-17T05:02:38.417Z,99.90
2023-08-17T05:05:10.719Z,99.90
2023-08-17T05:07:37.614Z,99.90
2023-08-17T05:10:04.760Z,99.90
2023-08-17T05:12:31.536Z,99.90
2023-08-17T05:14:58.200Z,99.90
2023-08-17T05:17:25.378Z,99.90
2023-08-17T05:19:52.665Z,99.90
2023-08-17T05:22:19.732Z,99.90
2023-08-17T05:24:46.568Z,99.90
2023-08-17T05:27:13.285Z,99.90
2023-08-17T05:29:40.064Z,99.90
2023-08-17T05:32:07.223Z,99.90
2023-08-17T05:34:33.965Z,99.90
2023-08-17T05:37:00.782Z,99.90
2023-08-17T05:39:27.609Z,99.90
2023-08-17T05:41:54.349Z,99.90
2023-08-17T05:44:21.168Z,99.90
2023-08-17T05:46:48.657Z,99.90
2023-08-17T05:49:15.394Z,99.90
2023-08-17T05:51:42.188Z,99.90
2023-08-17T05:54:09.189Z,99.90
2023-08-17T05:56:35.906Z,99.90
2023-08-17T05:59:02.734Z,99.90
2023-08-17T06:01:29.615Z,99.90
2023-08-17T06:03:56.405Z,99.90
2023-08-17T06:06:23.275Z,99.90
2023-08-17T06:08:50.096Z,99.90
2023-08-17T06:11:16.801Z,99.90
2023-08-17T06:13:43.564Z,99.90
2023-08-17T06:16:11.422Z,99.90
2023-08-17T06:18:39.131Z,99.90
2023-08-17T06:21:06.097Z,99.90
2023-08-17T06:23:32.805Z,99.90
2023-08-17T06:26:00.244Z,99.90
2023-08-17T06:28:28.315Z,99.90
2023-08-17T06:30:56.445Z,99.90
2023-08-17T06:33:23.523Z,99.90
2023-08-17T06:35:50.801Z,99.90
2023-08-17T06:38:17.555Z,99.90
2023-08-17T06:40:45.367Z,99.90
2023-08-17T06:43:12.093Z,99.90
2023-08-17T06:45:39.374Z,99.90
2023-08-17T06:48:06.715Z,99.90
2023-08-17T06:50:33.600Z,99.90
2023-08-17T06:53:02.175Z,99.90
2023-08-17T06:55:29.197Z,99.90
2023-08-17T06:57:56.165Z,99.90
2023-08-17T07:00:23.002Z,99.90
2023-08-17T07:02:54.723Z,99.90
2023-08-17T07:05:23.643Z,99.90
2023-08-17T07:07:50.555Z,99.90
2023-08-17T07:10:17.420Z,99.90
2023-08-17T07:12:44.293Z,99.90
2023-08-17T07:15:11.526Z,99.90
2023-08-17T07:17:38.445Z,99.90
2023-08-17T07:20:16.351Z,99.90
2023-08-17T07:22:44.339Z,99.90
2023-08-17T07:25:11.303Z,99.90
2023-08-17T07:27:38.444Z,99.90
2023-08-17T07:30:05.789Z,99.90
2023-08-17T07:32:32.994Z,99.90
2023-08-17T07:34:59.808Z,99.90
2023-08-17T07:37:33.384Z,99.90
2023-08-17T07:40:00.639Z,99.90
2023-08-17T07:42:27.774Z,99.90
2023-08-17T07:44:54.752Z,99.90
2023-08-17T07:47:21.513Z,99.90
2023-08-17T07:49:49.811Z,99.90
2023-08-17T07:52:17.252Z,99.90
2023-08-17T07:54:44.269Z,99.90
2023-08-17T07:57:11.091Z,99.90
2023-08-17T07:59:37.946Z,99.90
2023-08-17T08:02:04.822Z,99.90
2023-08-17T08:04:31.676Z,99.90
2023-08-17T08:06:58.532Z,99.90
2023-08-17T08:09:25.269Z,99.90
2023-08-17T08:11:52.111Z,99.90
2023-08-17T08:14:18.944Z,99.90
2023-08-17T08:16:45.716Z,99.90
2023-08-17T08:19:12.462Z,99.90
2023-08-17T08:21:39.332Z,99.90
2023-08-17T08:24:10.364Z,99.90
2023-08-17T08:26:41.144Z,99.90
2023-08-17T08:29:08.349Z,99.90
2023-08-17T08:31:35.154Z,99.90
2023-08-17T08:34:01.937Z,99.90
2023-08-17T08:36:28.818Z,99.90
2023-08-17T08:38:55.611Z,99.90
2023-08-17T08:41:23.473Z,99.90
2023-08-17T08:43:50.440Z,99.90
2023-08-17T08:46:19.582Z,99.90
2023-08-17T08:48:48.359Z,99.90
2023-08-17T08:51:22.710Z,99.90
2023-08-17T08:53:55.197Z,99.90
2023-08-17T08:56:24.000Z,99.90
2023-08-17T08:58:54.653Z,99.90
2023-08-17T09:01:22.854Z,99.90
2023-08-17T09:03:50.250Z,99.90
2023-08-17T09:06:18.396Z,99.90
2023-08-17T09:08:46.223Z,99.90
2023-08-17T09:11:12.895Z,99.90
2023-08-17T09:13:39.677Z,99.90
2023-08-17T09:16:08.070Z,99.90
2023-08-17T09:18:39.335Z,99.90
2023-08-17T09:21:06.489Z,99.90
2023-08-17T09:23:36.078Z,99.90
2023-08-17T09:26:09.920Z,99.90
2023-08-17T09:28:41.526Z,99.90
2023-08-17T09:31:08.292Z,99.90
2023-08-17T09:33:36.405Z,99.90
2023-08-17T09:36:03.380Z,99.90
2023-08-17T09:38:30.260Z,99.90
2023-08-17T09:40:58.447Z,99.90
2023-08-17T09:43:29.106Z,99.90
2023-08-17T09:45:56.414Z,99.90
2023-08-17T09:48:26.366Z,99.90
2023-08-17T09:50:53.124Z,99.90
2023-08-17T09:53:20.306Z,99.90
2023-08-17T09:55:47.743Z,99.90
2023-08-17T09:58:16.336Z,99.90
2023-08-17T10:00:52.263Z,99.90
2023-08-17T10:03:21.200Z,99.90
2023-08-17T10:06:02.470Z,99.90
2023-08-17T10:08:31.728Z,99.90
2023-08-17T10:11:00.348Z,99.90
2023-08-17T10:13:52.188Z,99.90
2023-08-17T10:19:02.838Z,99.90
2023-08-17T10:21:37.525Z,99.90
2023-08-17T10:24:04.848Z,99.90
2023-08-17T10:26:32.675Z,99.90
2023-08-17T10:29:05.496Z,99.90
2023-08-17T10:31:39.834Z,99.90
2023-08-17T10:34:07.027Z,99.90
2023-08-17T10:36:34.812Z,99.90
2023-08-17T10:39:25.980Z,99.90
2023-08-17T10:41:54.645Z,99.90
2023-08-17T10:44:47.312Z,99.90
2023-08-17T10:50:23.341Z,99.90
2023-08-17T10:52:54.193Z,99.90
2023-08-17T10:55:37.737Z,99.90
2023-08-17T10:58:05.650Z,99.90
2023-08-17T11:00:37.617Z,99.90
2023-08-17T11:03:11.976Z,99.90
2023-08-17T11:05:59.267Z,99.90
2023-08-17T11:08:32.673Z,99.90
2023-08-17T11:11:04.838Z,99.90
2023-08-17T11:13:36.358Z,99.90
2023-08-17T11:16:04.854Z,99.90
2023-08-17T11:18:35.322Z,99.90
2023-08-17T11:21:04.858Z,99.90
2023-08-17T11:23:32.998Z,99.90
2023-08-17T11:26:00.332Z,99.90
2023-08-17T11:28:27.820Z,99.90
2023-08-17T11:31:02.283Z,99.90
2023-08-17T11:33:30.426Z,99.90
2023-08-17T11:36:03.261Z,99.90
2023-08-17T11:38:41.922Z,99.90
2023-08-17T11:41:10.062Z,99.90
2023-08-17T11:43:37.708Z,99.90
2023-08-17T11:46:05.188Z,99.90
2023-08-17T11:51:02.649Z,99.90
2023-08-17T11:53:38.170Z,99.70
2023-08-17T11:56:08.903Z,99.60
2023-08-17T11:58:46.899Z,99.90
2023-08-17T12:01:17.036Z,99.90
2023-08-17T12:03:44.763Z,99.70
2023-08-17T12:06:14.501Z,98.60
2023-08-17T12:08:50.382Z,98.10
2023-08-17T12:11:18.769Z,97.70
2023-08-17T12:13:53.177Z,97.60
2023-08-17T12:16:21.606Z,98.20
2023-08-17T12:18:53.230Z,96.40
2023-08-17T12:21:24.046Z,95.90
2023-08-17T12:23:51.468Z,97.40
2023-08-17T12:26:22.591Z,97.40
2023-08-17T12:28:51.257Z,96.60
2023-08-17T12:31:23.661Z,96.50
2023-08-17T12:33:51.653Z,95.50
2023-08-17T12:36:19.824Z,95.50
2023-08-17T12:38:49.039Z,97.70
2023-08-17T12:41:15.808Z,97.00
2023-08-17T12:43:42.534Z,95.50
2023-08-17T12:46:09.347Z,95.20
2023-08-17T12:48:36.792Z,93.90
2023-08-17T12:51:05.214Z,94.10
2023-08-17T12:53:32.491Z,94.40
2023-08-17T12:55:59.526Z,95.60
2023-08-17T12:58:26.482Z,93.60
2023-08-17T13:00:55.542Z,92.80
2023-08-17T13:03:22.499Z,92.20
2023-08-17T13:05:49.431Z,92.80
2023-08-17T13:08:16.279Z,92.00
2023-08-17T13:10:43.130Z,91.70
2023-08-17T13:13:10.056Z,91.00
2023-08-17T13:15:37.685Z,90.80
2023-08-17T13:18:04.889Z,90.00
2023-08-17T13:20:31.996Z,87.90
2023-08-17T13:22:58.750Z,86.50
2023-08-17T13:25:25.969Z,88.70
2023-08-17T13:27:53.056Z,85.30
2023-08-17T13:30:19.771Z,81.30
2023-08-17T13:32:47.139Z,79.30
2023-08-17T13:35:15.477Z,77.10
2023-08-17T13:37:42.476Z,75.30
2023-08-17T13:40:09.997Z,83.40
2023-08-17T13:42:37.843Z,76.10
2023-08-17T13:45:05.204Z,73.10
2023-08-17T13:47:31.998Z,70.10
2023-08-17T13:49:59.601Z,73.20
2023-08-17T13:52:26.752Z,72.80
2023-08-17T13:54:53.842Z,67.50
2023-08-17T13:57:20.608Z,70.50
2023-08-17T13:59:47.385Z,65.70
2023-08-17T14:02:14.148Z,64.90
2023-08-17T14:04:40.948Z,64.50
2023-08-17T14:07:07.724Z,63.90
2023-08-17T14:09:34.467Z,66.60
2023-08-17T14:12:02.696Z,62.60
2023-08-17T14:14:29.581Z,62.10
2023-08-17T14:16:56.546Z,60.60
2023-08-17T14:19:23.455Z,62.20
2023-08-17T14:21:50.397Z,61.60
2023-08-17T14:24:17.187Z,62.70
2023-08-17T14:26:44.396Z,58.40
2023-08-17T14:29:11.186Z,58.20
2023-08-17T14:31:38.085Z,57.60
2023-08-17T14:34:06.603Z,56.80
2023-08-17T14:36:33.915Z,58.00
2023-08-17T14:39:00.714Z,59.10
2023-08-17T14:41:32.555Z,57.40
2023-08-17T14:44:02.960Z,57.40
2023-08-17T14:46:30.892Z,58.20
2023-08-17T14:48:58.567Z,59.40
2023-08-17T14:51:30.944Z,59.00
2023-08-17T14:53:58.211Z,58.80
2023-08-17T14:56:24.989Z,57.60
2023-08-17T14:58:51.805Z,58.00
2023-08-17T15:01:19.140Z,57.50
2023-08-17T15:03:47.475Z,57.80
2023-08-17T15:08:49.768Z,60.40
2023-08-17T15:11:16.430Z,61.60
2023-08-17T15:13:43.884Z,60.90
2023-08-17T15:16:11.747Z,60.10
2023-08-17T15:18:40.250Z,59.40
2023-08-17T15:21:06.990Z,62.10
2023-08-17T15:23:33.799Z,60.00
2023-08-17T15:26:00.562Z,62.30
2023-08-17T15:28:27.379Z,61.80
2023-08-17T15:31:03.262Z,62.00
2023-08-17T15:33:30.325Z,64.30
2023-08-17T15:35:58.817Z,66.10
2023-08-17T15:38:26.491Z,66.20
2023-08-17T15:40:55.465Z,66.00
2023-08-17T15:43:22.709Z,65.70
2023-08-17T15:45:53.551Z,65.60
2023-08-17T15:48:20.790Z,66.60
2023-08-17T15:50:47.533Z,67.90
2023-08-17T15:53:14.306Z,68.30
2023-08-17T15:55:41.101Z,69.70
2023-08-17T15:58:10.554Z,70.60
2023-08-17T16:00:37.691Z,72.20
2023-08-17T16:03:05.111Z,71.70
2023-08-17T16:05:32.052Z,72.40
2023-08-17T16:07:59.578Z,72.90
2023-08-17T16:10:26.997Z,73.10
2023-08-17T16:12:53.748Z,73.30
2023-08-17T16:15:20.647Z,74.90
2023-08-17T16:17:47.493Z,73.40
2023-08-17T16:20:14.704Z,72.10
2023-08-17T16:22:42.693Z,71.50
2023-08-17T16:25:09.607Z,72.60
2023-08-17T16:27:38.720Z,71.40
2023-08-17T16:30:07.152Z,75.80
2023-08-17T16:32:34.041Z,78.10
2023-08-17T16:35:00.844Z,78.20
2023-08-17T16:37:27.880Z,79.20
2023-08-17T16:39:54.901Z,80.30
2023-08-17T16:42:21.647Z,81.70
2023-08-17T16:44:48.722Z,80.50
2023-08-17T16:47:19.908Z,81.90
2023-08-17T16:49:47.027Z,81.10
2023-08-17T16:52:13.963Z,80.80
2023-08-17T16:54:46.702Z,81.40
2023-08-17T16:57:14.998Z,81.70
2023-08-17T16:59:42.004Z,82.40
2023-08-17T17:02:14.242Z,81.80
2023-08-17T17:04:43.517Z,86.10
2023-08-17T17:07:10.264Z,84.70
2023-08-17T17:09:37.146Z,83.80
2023-08-17T17:12:07.292Z,85.30
2023-08-17T17:14:34.078Z,86.80
2023-08-17T17:17:00.817Z,85.70
2023-08-17T17:19:27.577Z,86.60
2023-08-17T17:21:54.303Z,86.90
2023-08-17T17:24:21.075Z,87.70
2023-08-17T17:26:48.138Z,88.50
2023-08-17T17:29:14.874Z,88.90
2023-08-17T17:31:41.663Z,90.50
2023-08-17T17:34:08.493Z,91.40
2023-08-17T17:36:35.511Z,90.00
2023-08-17T17:39:02.336Z,89.90
2023-08-17T17:41:29.101Z,90.10
2023-08-17T17:43:56.068Z,91.00
2023-08-17T17:46:22.818Z,91.40
2023-08-17T17:48:49.685Z,91.50
2023-08-17T17:51:16.524Z,92.60
2023-08-17T17:53:43.216Z,93.90
2023-08-17T17:56:12.646Z,93.90
2023-08-17T17:58:39.478Z,93.00
2023-08-17T18:01:06.254Z,93.50
2023-08-17T18:03:33.090Z,92.80
2023-08-17T18:05:59.872Z,93.60
2023-08-17T18:08:26.948Z,94.60
2023-08-17T18:10:55.003Z,94.90
2023-08-17T18:13:23.172Z,95.40
2023-08-17T18:15:50.028Z,95.80
2023-08-17T18:18:16.922Z,96.30
2023-08-17T18:20:43.869Z,96.70
2023-08-17T18:23:10.569Z,97.30
2023-08-17T18:25:37.375Z,97.90
2023-08-17T18:28:05.753Z,98.60
2023-08-17T18:30:32.991Z,98.80
2023-08-17T18:33:00.095Z,98.70
2023-08-17T18:35:26.980Z,99.10
2023-08-17T18:37:53.712Z,99.40
2023-08-17T18:40:21.540Z,99.90
2023-08-17T18:42:50.049Z,99.90
2023-08-17T18:45:18.776Z,99.90
2023-08-17T18:47:47.533Z,99.90
2023-08-17T18:50:15.077Z,99.90
2023-08-17T18:52:42.028Z,99.90
2023-08-17T18:55:12.338Z,99.90
2023-08-17T18:57:40.122Z,99.90
2023-08-17T19:00:10.159Z,99.90
2023-08-17T19:02:37.003Z,99.90
2023-08-17T19:05:04.077Z,99.90
2023-08-17T19:07:31.011Z,99.90
2023-08-17T19:09:57.963Z,99.90
2023-08-17T19:12:24.811Z,99.90
2023-08-17T19:14:51.655Z,99.90
2023-08-17T19:17:18.744Z,99.90
2023-08-17T19:19:46.205Z,99.90
2023-08-17T19:22:12.920Z,99.90
2023-08-17T19:24:40.528Z,99.90
2023-08-17T19:27:07.313Z,99.90
2023-08-17T19:29:34.061Z,99.90
2023-08-17T19:32:00.865Z,99.90
2023-08-17T19:34:27.768Z,99.90
2023-08-17T19:36:54.490Z,99.90
2023-08-17T19:39:21.393Z,99.90
2023-08-17T19:41:50.078Z,99.90
2023-08-17T19:44:17.175Z,99.90
2023-08-17T19:46:44.151Z,99.90
2023-08-17T19:49:10.995Z,99.90
2023-08-17T19:51:38.729Z,99.90
2023-08-17T19:54:05.738Z,99.90
2023-08-17T19:56:32.908Z,99.90
2023-08-17T19:59:00.304Z,99.90
2023-08-17T20:01:27.118Z,99.90
2023-08-17T20:03:54.736Z,99.90
2023-08-17T20:06:21.673Z,99.90
2023-08-17T20:08:48.442Z,99.90
2023-08-17T20:11:17.107Z,99.90
2023-08-17T20:13:43.901Z,99.90
2023-08-17T20:16:10.857Z,99.90
2023-08-17T20:18:37.737Z,99.90
2023-08-17T20:21:05.236Z,99.90
2023-08-17T20:23:32.659Z,99.90
2023-08-17T20:25:59.930Z,99.90
2023-08-17T20:28:26.727Z,99.90
2023-08-17T20:31:00.622Z,99.90
2023-08-17T20:33:27.936Z,99.90
2023-08-17T20:35:55.942Z,99.90
2023-08-17T20:38:24.072Z,99.90
2023-08-17T20:40:51.401Z,99.90
2023-08-17T20:43:18.601Z,99.90
2023-08-17T20:45:45.804Z,99.90
2023-08-17T20:48:12.866Z,99.90
2023-08-17T20:50:41.045Z,99.90
2023-08-17T20:53:08.477Z,99.90
2023-08-17T20:55:39.053Z,99.90
2023-08-17T20:58:05.994Z,99.90
2023-08-17T21:00:33.662Z,99.90
2023-08-17T21:03:00.521Z,99.90
2023-08-17T21:05:28.958Z,99.90
2023-08-17T21:07:56.641Z,99.90
2023-08-17T21:10:24.814Z,99.90
2023-08-17T21:12:51.909Z,99.90
2023-08-17T21:15:18.774Z,99.90
2023-08-17T21:17:46.386Z,99.90
2023-08-17T21:20:13.709Z,99.90
2023-08-17T21:22:44.438Z,99.90
2023-08-17T21:25:11.448Z,99.90
2023-08-17T21:27:39.140Z,99.90
2023-08-17T21:30:06.945Z,99.90
2023-08-17T21:32:33.811Z,99.90
2023-08-17T21:35:00.618Z,99.90
2023-08-17T21:37:29.147Z,99.90
2023-08-17T21:39:56.180Z,99.90
2023-08-17T21:42:23.101Z,99.90
2023-08-17T21:44:50.846Z,99.90
2023-08-17T21:47:17.763Z,99.90
2023-08-17T21:49:47.714Z,99.90
2023-08-17T21:52:16.052Z,99.90
2023-08-17T21:54:43.254Z,99.90
2023-08-17T21:57:10.080Z,99.90
2023-08-17T21:59:36.962Z,99.90
2023-08-17T22:02:04.389Z,99.90
2023-08-17T22:04:33.841Z,99.90
2023-08-17T22:07:03.807Z,99.90
2023-08-17T22:09:30.811Z,99.90
2023-08-17T22:11:57.587Z,99.90
2023-08-17T22:14:24.614Z,99.90
2023-08-17T22:16:51.517Z,99.90
2023-08-17T22:19:18.331Z,99.90
2023-08-17T22:21:45.124Z,99.90
2023-08-17T22:24:11.865Z,99.90
2023-08-17T22:26:38.585Z,99.90
2023-08-17T22:29:06.598Z,99.90
2023-08-17T22:31:34.367Z,99.90
2023-08-17T22:34:01.953Z,99.90
2023-08-17T22:36:28.756Z,99.90
2023-08-17T22:38:55.674Z,99.90
2023-08-17T22:41:22.475Z,99.90
2023-08-17T22:43:49.666Z,99.90
2023-08-17T22:46:16.657Z,99.90
2023-08-17T22:48:44.425Z,99.90
2023-08-17T22:51:14.783Z,99.90
2023-08-17T22:53:44.830Z,99.90
2023-08-17T22:56:11.740Z,99.90
2023-08-17T22:58:38.503Z,99.90
2023-08-17T23:01:05.911Z,99.90
2023-08-17T23:56:32.071Z,99.90
2023-08-17T23:58:58.832Z,99.90
